Time;durP1;ratioP1;P1;durP2;ratioP2;P2;SDS_P1;SDS_P2;PMS_P1;PMS_P2;Temp;Humidity;BMP_temperature;BMP_pressure;BME280_temperature;BME280_humidity;BME280_pressure;Samples;Min_cycle;Max_cycle;Signal;HPM_P1;HPM_P2
2024/01/11 00:02:02;;;;;;;24.97;20.97;;;-3.40;99.90;;;;;;5026313;28;20959;-64
2024/01/11 00:04:29;;;;;;;24.42;20.08;;;-3.40;99.90;;;;;;5026232;28;20415;-64
2024/01/11 00:06:56;;;;;;;24.95;20.40;;;-3.40;99.90;;;;;;5027046;28;20769;-64
2024/01/11 00:09:23;;;;;;;22.83;19.63;;;-3.30;99.90;;;;;;5024503;28;20487;-64
2024/01/11 00:11:50;;;;;;;22.65;20.10;;;-3.30;99.90;;;;;;5025584;28;20423;-64
2024/01/11 00:14:16;;;;;;;23.48;19.02;;;-3.30;99.90;;;;;;5024944;28;20869;-64
2024/01/11 00:16:43;;;;;;;21.92;19.45;;;-3.30;99.90;;;;;;5024511;28;20430;-64
2024/01/11 00:19:11;;;;;;;22.70;19.90;;;-3.30;99.90;;;;;;5025317;28;20439;-65
2024/01/11 00:21:38;;;;;;;22.48;18.98;;;-3.30;99.90;;;;;;5026823;28;20418;-65
2024/01/11 00:24:04;;;;;;;21.75;19.33;;;-3.40;99.90;;;;;;5025434;28;20438;-64
2024/01/11 00:26:31;;;;;;;20.38;18.27;;;-3.40;99.90;;;;;;5025379;28;20785;-64
2024/01/11 00:28:57;;;;;;;22.20;18.90;;;-3.40;99.90;;;;;;5024767;28;20415;-64
2024/01/11 00:31:24;;;;;;;23.90;20.13;;;-3.50;99.90;;;;;;5026544;28;20418;-64
2024/01/11 00:33:51;;;;;;;19.55;17.35;;;-3.40;99.90;;;;;;5025382;28;20419;-65
2024/01/11 00:36:21;;;;;;;22.02;19.63;;;-3.40;99.90;;;;;;5025299;28;20411;-64
2024/01/11 00:38:48;;;;;;;20.50;18.20;;;-3.40;99.90;;;;;;5017031;28;20443;-64
2024/01/11 00:41:15;;;;;;;20.70;18.35;;;-3.40;99.90;;;;;;5024817;28;20445;-64
2024/01/11 00:43:42;;;;;;;22.55;19.15;;;-3.40;99.90;;;;;;5025121;28;20411;-64
2024/01/11 00:46:09;;;;;;;21.40;18.45;;;-3.40;99.90;;;;;;5022200;28;20474;-64
2024/01/11 00:48:35;;;;;;;21.20;18.05;;;-3.40;99.90;;;;;;5023606;28;20439;-64
2024/01/11 00:51:02;;;;;;;22.13;18.43;;;-3.50;99.90;;;;;;5024209;28;21023;-64
2024/01/11 00:53:30;;;;;;;21.85;18.77;;;-3.40;99.90;;;;;;5023800;28;20779;-64
2024/01/11 00:55:57;;;;;;;21.75;18.20;;;-3.40;99.90;;;;;;5023786;28;20445;-64
2024/01/11 00:58:24;;;;;;;19.13;17.02;;;-3.40;99.90;;;;;;5023001;28;20431;-64
2024/01/11 01:00:52;;;;;;;20.95;17.88;;;-3.40;99.90;;;;;;5021860;28;20439;-64
2024/01/11 01:03:19;;;;;;;19.65;17.27;;;-3.40;99.90;;;;;;5023851;28;20812;-64
2024/01/11 01:05:46;;;;;;;18.45;16.45;;;-3.50;99.90;;;;;;5023272;28;20430;-64
2024/01/11 01:08:12;;;;;;;21.50;17.08;;;-3.50;99.90;;;;;;5021184;28;20514;-63
2024/01/11 01:10:41;;;;;;;20.02;17.60;;;-3.50;99.90;;;;;;5024641;28;20414;-65
2024/01/11 01:13:07;;;;;;;22.75;18.30;;;-3.60;99.90;;;;;;5024458;28;20430;-64
2024/01/11 01:15:34;;;;;;;21.75;19.33;;;-3.50;99.90;;;;;;5023906;28;20449;-64
2024/01/11 01:18:01;;;;;;;23.00;18.88;;;-3.50;99.90;;;;;;5024273;28;20437;-65
2024/01/11 01:20:27;;;;;;;21.92;19.35;;;-3.50;99.90;;;;;;5023680;28;20441;-64
2024/01/11 01:22:54;;;;;;;21.70;19.05;;;-3.50;99.90;;;;;;5030557;28;20522;-64
2024/01/11 01:25:21;;;;;;;21.48;18.50;;;-3.50;99.90;;;;;;5038135;28;20643;-64
2024/01/11 01:27:49;;;;;;;22.17;19.00;;;-3.50;99.90;;;;;;5027362;28;20415;-65
2024/01/11 01:30:16;;;;;;;21.48;19.15;;;-3.50;99.90;;;;;;5023245;28;20430;-64
2024/01/11 01:32:42;;;;;;;24.08;20.10;;;-3.50;99.90;;;;;;5025204;28;20430;-64
2024/01/11 01:35:09;;;;;;;22.20;19.50;;;-3.50;99.90;;;;;;5023274;28;20877;-64
2024/01/11 01:37:36;;;;;;;23.00;20.50;;;-3.50;99.90;;;;;;5023976;28;20441;-64
2024/01/11 01:40:03;;;;;;;24.52;19.20;;;-3.50;99.90;;;;;;5021977;28;20453;-64
2024/01/11 01:42:29;;;;;;;24.77;20.38;;;-3.50;99.90;;;;;;5014664;28;20521;-64
2024/01/11 01:44:58;;;;;;;24.00;19.80;;;-3.40;99.90;;;;;;5024399;28;20414;-64
2024/01/11 01:47:24;;;;;;;25.92;20.20;;;-3.40;99.90;;;;;;5022982;28;20423;-65
2024/01/11 01:49:51;;;;;;;25.33;20.80;;;-3.40;99.90;;;;;;5021475;28;20411;-65
2024/01/11 01:52:19;;;;;;;25.35;21.30;;;-3.40;99.90;;;;;;5024177;28;20431;-64
2024/01/11 01:54:48;;;;;;;25.37;21.47;;;-3.50;99.90;;;;;;5023649;28;21570;-64
2024/01/11 01:57:16;;;;;;;23.67;20.40;;;-3.50;99.90;;;;;;5021535;28;20415;-64
2024/01/11 01:59:43;;;;;;;26.13;21.23;;;-3.50;99.90;;;;;;5021505;28;20526;-64
2024/01/11 02:02:11;;;;;;;23.25;19.85;;;-3.50;99.90;;;;;;5023689;28;20419;-64
2024/01/11 02:04:38;;;;;;;23.23;19.87;;;-3.60;99.90;;;;;;5023243;28;20438;-64
2024/01/11 02:07:07;;;;;;;25.40;20.80;;;-3.60;99.90;;;;;;5019976;28;20431;-64
2024/01/11 02:09:34;;;;;;;24.52;20.30;;;-3.60;99.90;;;;;;5019387;28;20514;-64
2024/01/11 02:12:03;;;;;;;23.90;20.13;;;-3.60;99.90;;;;;;5027142;28;20455;-64
2024/01/11 02:14:30;;;;;;;21.65;19.10;;;-3.70;99.90;;;;;;5028528;28;20880;-65
2024/01/11 02:16:56;;;;;;;24.73;19.98;;;-3.70;99.90;;;;;;5027964;28;20438;-63
2024/01/11 02:19:24;;;;;;;23.58;19.52;;;-3.70;99.90;;;;;;5026860;28;20870;-64
2024/01/11 02:21:55;;;;;;;23.85;19.83;;;-3.80;99.90;;;;;;5027702;28;20826;-64
2024/01/11 02:24:23;;;;;;;23.95;20.15;;;-3.80;99.90;;;;;;5027536;28;20415;-64
2024/01/11 02:27:00;;;;;;;22.75;19.05;;;-3.80;99.90;;;;;;5027864;28;20886;-64
2024/01/11 02:29:27;;;;;;;26.60;20.75;;;-3.80;99.90;;;;;;5024249;28;20814;-64
2024/01/11 02:31:54;;;;;;;23.00;19.27;;;-3.90;99.90;;;;;;5024249;28;20430;-63
2024/01/11 02:34:22;;;;;;;24.83;19.98;;;-3.90;99.90;;;;;;5024103;28;20521;-64
2024/01/11 02:36:48;;;;;;;24.13;20.02;;;-3.90;99.90;;;;;;5024173;28;20812;-64
2024/01/11 02:39:18;;;;;;;24.42;19.95;;;-3.90;99.90;;;;;;5022166;28;21015;-64
2024/01/11 02:41:46;;;;;;;28.17;20.27;;;-4.00;99.90;;;;;;5027111;28;20431;-64
2024/01/11 02:44:13;;;;;;;24.63;20.63;;;-3.90;99.90;;;;;;5025628;28;20474;-63
2024/01/11 02:46:39;;;;;;;26.02;20.13;;;-3.90;99.90;;;;;;5020805;28;20754;-63
2024/01/11 02:49:06;;;;;;;26.75;20.55;;;-3.90;99.90;;;;;;5028805;28;20429;-64
2024/01/11 02:51:33;;;;;;;26.05;20.90;;;-3.90;99.90;;;;;;5025419;28;20434;-64
2024/01/11 02:54:00;;;;;;;25.20;21.60;;;-3.90;99.90;;;;;;5025899;28;20478;-63
2024/01/11 02:56:26;;;;;;;26.65;21.33;;;-3.90;99.90;;;;;;5025567;28;21064;-64
2024/01/11 02:58:54;;;;;;;24.20;21.60;;;-3.90;99.90;;;;;;5025051;28;20434;-64
2024/01/11 03:01:21;;;;;;;26.65;22.30;;;-3.90;99.90;;;;;;5026166;28;20948;-62
2024/01/11 03:03:48;;;;;;;23.60;20.87;;;-3.90;99.90;;;;;;5024298;28;20414;-63
2024/01/11 03:06:15;;;;;;;23.15;20.63;;;-4.00;99.90;;;;;;5023834;28;20435;-63
2024/01/11 03:08:41;;;;;;;24.58;21.27;;;-4.10;99.90;;;;;;5026845;28;20427;-63
2024/01/11 03:11:08;;;;;;;25.45;21.65;;;-4.10;99.90;;;;;;5028744;28;20423;-63
2024/01/11 03:13:35;;;;;;;24.83;21.33;;;-4.10;99.90;;;;;;5027712;28;20437;-63
2024/01/11 03:16:03;;;;;;;24.05;21.02;;;-4.10;99.90;;;;;;5028659;28;20411;-64
2024/01/11 03:18:31;;;;;;;27.35;21.92;;;-4.10;99.90;;;;;;5025613;28;20862;-63
2024/01/11 03:20:57;;;;;;;25.55;21.63;;;-4.00;99.90;;;;;;5024763;28;20913;-63
2024/01/11 03:23:24;;;;;;;25.25;21.52;;;-4.00;99.90;;;;;;5027201;28;20893;-63
2024/01/11 03:25:51;;;;;;;26.63;22.35;;;-4.00;99.90;;;;;;5028654;28;20419;-63
2024/01/11 03:28:18;;;;;;;26.92;21.98;;;-4.00;99.90;;;;;;5027042;28;20415;-63
2024/01/11 03:30:45;;;;;;;26.27;22.07;;;-4.10;99.90;;;;;;5025715;28;20414;-63
2024/01/11 03:33:13;;;;;;;26.05;22.15;;;-4.10;99.90;;;;;;5028411;28;20419;-63
2024/01/11 03:35:40;;;;;;;25.98;22.67;;;-4.10;99.90;;;;;;5035320;28;20435;-63
2024/01/11 03:38:07;;;;;;;24.08;21.48;;;-4.10;99.90;;;;;;5034963;28;21033;-62
2024/01/11 03:40:33;;;;;;;23.58;20.48;;;-4.20;99.90;;;;;;5029921;28;20431;-64
2024/01/11 03:43:00;;;;;;;25.17;20.58;;;-4.20;99.90;;;;;;5027907;28;20885;-63
2024/01/11 03:45:27;;;;;;;24.80;22.10;;;-4.30;99.90;;;;;;5027905;28;20426;-63
2024/01/11 03:47:53;;;;;;;24.35;20.25;;;-4.30;99.90;;;;;;5027747;28;20426;-62
2024/01/11 03:50:21;;;;;;;22.73;19.85;;;-4.20;99.90;;;;;;5026867;28;20427;-63
2024/01/11 03:52:48;;;;;;;23.88;19.80;;;-4.30;99.90;;;;;;5028302;28;20658;-63
2024/01/11 03:55:15;;;;;;;24.93;20.33;;;-4.30;99.90;;;;;;5032312;28;20846;-63
2024/01/11 03:57:42;;;;;;;23.92;21.13;;;-4.40;99.90;;;;;;5029333;28;20415;-63
2024/01/11 04:00:09;;;;;;;23.05;19.65;;;-4.40;99.90;;;;;;5030065;28;20529;-63
2024/01/11 04:02:36;;;;;;;23.50;19.15;;;-4.40;99.90;;;;;;5029339;28;20427;-63
2024/01/11 04:05:03;;;;;;;22.88;19.25;;;-4.30;99.90;;;;;;5029803;28;20893;-63
2024/01/11 04:07:31;;;;;;;23.88;19.58;;;-4.30;99.90;;;;;;5028250;28;20427;-63
2024/01/11 04:09:58;;;;;;;24.25;20.48;;;-4.40;99.90;;;;;;5027455;28;20426;-63
2024/01/11 04:12:25;;;;;;;24.85;21.13;;;-4.30;99.90;;;;;;5028649;28;20630;-63
2024/01/11 04:14:52;;;;;;;22.42;19.73;;;-4.30;99.90;;;;;;5033776;28;20425;-63
2024/01/11 04:17:18;;;;;;;24.42;21.05;;;-4.30;99.90;;;;;;5029271;28;20423;-64
2024/01/11 04:19:45;;;;;;;25.27;20.17;;;-4.30;99.90;;;;;;5020115;28;20447;-63
2024/01/11 04:22:12;;;;;;;22.95;20.00;;;-4.30;99.90;;;;;;5023920;28;20445;-63
2024/01/11 04:24:42;;;;;;;23.43;19.70;;;-4.30;99.90;;;;;;5027316;28;20507;-64
2024/01/11 04:27:09;;;;;;;23.20;20.70;;;-4.30;99.90;;;;;;5027893;28;20434;-62
2024/01/11 04:29:36;;;;;;;26.33;19.88;;;-4.30;99.90;;;;;;5024967;28;20853;-63
2024/01/11 04:32:03;;;;;;;20.47;18.23;;;-4.30;99.90;;;;;;5027040;28;20415;-64
2024/01/11 04:34:29;;;;;;;24.08;19.75;;;-4.30;99.90;;;;;;5026056;28;20513;-63
2024/01/11 04:36:56;;;;;;;22.50;19.40;;;-4.30;99.90;;;;;;5033901;28;20431;-62
2024/01/11 04:39:23;;;;;;;23.25;19.92;;;-4.40;99.90;;;;;;5039032;28;20434;-63
2024/01/11 04:41:51;;;;;;;23.30;19.27;;;-4.40;99.90;;;;;;5030635;28;20442;-66
2024/01/11 04:44:17;;;;;;;25.33;20.00;;;-4.50;99.90;;;;;;5027371;28;20506;-62
2024/01/11 04:46:44;;;;;;;23.98;20.08;;;-4.50;99.90;;;;;;5026020;28;20418;-63
2024/01/11 04:49:11;;;;;;;23.20;19.35;;;-4.50;99.90;;;;;;5024513;28;20439;-65
2024/01/11 04:51:38;;;;;;;23.75;20.23;;;-4.50;99.90;;;;;;5024898;28;20415;-67
2024/01/11 04:54:04;;;;;;;25.08;20.20;;;-4.50;99.90;;;;;;5024760;28;20514;-63
2024/01/11 04:56:31;;;;;;;25.35;21.20;;;-4.50;99.90;;;;;;5024448;28;20415;-63
2024/01/11 04:58:59;;;;;;;24.60;20.40;;;-4.40;99.90;;;;;;5025363;28;20433;-63
2024/01/11 05:01:26;;;;;;;25.13;20.13;;;-4.40;99.90;;;;;;5026958;28;20439;-63
2024/01/11 05:03:53;;;;;;;23.08;20.25;;;-4.40;99.90;;;;;;5029317;28;20436;-63
2024/01/11 05:06:20;;;;;;;24.63;20.20;;;-4.30;99.90;;;;;;5027591;28;20411;-63
2024/01/11 05:08:48;;;;;;;25.90;21.10;;;-4.30;99.90;;;;;;5023568;28;20831;-63
2024/01/11 05:11:18;;;;;;;24.42;20.10;;;-4.40;99.90;;;;;;5025788;28;20411;-63
2024/01/11 05:13:47;;;;;;;23.83;20.75;;;-4.40;99.90;;;;;;5026906;28;20560;-63
2024/01/11 05:16:23;;;;;;;22.80;19.38;;;-4.40;99.90;;;;;;5036404;28;20457;-63
2024/01/11 05:18:50;;;;;;;23.83;19.58;;;-4.40;99.90;;;;;;5029014;28;20581;-62
2024/01/11 05:21:17;;;;;;;22.33;19.88;;;-4.40;99.90;;;;;;5027640;28;20436;-63
2024/01/11 05:23:43;;;;;;;24.38;19.70;;;-4.40;99.90;;;;;;5025843;28;20450;-63
2024/01/11 05:26:10;;;;;;;24.17;20.17;;;-4.50;99.90;;;;;;5035665;28;20417;-63
2024/01/11 05:28:39;;;;;;;24.20;19.90;;;-4.50;99.90;;;;;;5041506;28;20414;-63
2024/01/11 05:31:07;;;;;;;24.40;20.60;;;-4.50;99.90;;;;;;5041468;28;20503;-63
2024/01/11 05:33:35;;;;;;;24.77;20.53;;;-4.50;99.90;;;;;;5040986;28;20472;-63
2024/01/11 05:36:02;;;;;;;22.70;20.00;;;-4.60;99.90;;;;;;5043769;28;20426;-63
2024/01/11 05:38:29;;;;;;;24.65;19.75;;;-4.60;99.90;;;;;;5041220;28;20962;-64
2024/01/11 05:40:56;;;;;;;24.35;19.65;;;-4.60;99.90;;;;;;5038053;28;20443;-63
2024/01/11 05:43:23;;;;;;;26.60;20.73;;;-4.70;99.90;;;;;;5046912;28;20447;-64
2024/01/11 05:45:50;;;;;;;26.10;21.02;;;-4.70;99.90;;;;;;5045862;28;20422;-63
2024/01/11 05:48:17;;;;;;;26.65;21.48;;;-4.60;99.90;;;;;;5036864;28;20422;-62
2024/01/11 05:50:45;;;;;;;24.63;20.73;;;-4.60;99.90;;;;;;5041101;28;20509;-62
2024/01/11 05:53:12;;;;;;;26.13;22.33;;;-4.50;99.90;;;;;;5042569;28;20415;-63
2024/01/11 05:55:39;;;;;;;25.92;21.40;;;-4.50;99.90;;;;;;5039853;28;20411;-63
2024/01/11 05:58:06;;;;;;;26.23;21.85;;;-4.50;99.90;;;;;;5038875;28;20523;-63
2024/01/11 06:00:32;;;;;;;27.80;21.90;;;-4.50;99.90;;;;;;5041199;28;20877;-63
2024/01/11 06:03:00;;;;;;;26.80;22.60;;;-4.50;99.90;;;;;;5029712;28;20415;-63
2024/01/11 06:05:26;;;;;;;26.20;22.05;;;-4.40;99.90;;;;;;5040197;28;20506;-62
2024/01/11 06:07:55;;;;;;;27.75;21.95;;;-4.40;99.90;;;;;;5040663;28;20430;-63
2024/01/11 06:10:21;;;;;;;28.45;23.10;;;-4.50;99.90;;;;;;5040867;28;20427;-69
2024/01/11 06:12:48;;;;;;;29.20;23.65;;;-4.50;99.90;;;;;;5043108;28;20410;-63
2024/01/11 06:15:15;;;;;;;25.90;22.40;;;-4.50;99.90;;;;;;5041365;28;20448;-63
2024/01/11 06:17:41;;;;;;;28.25;22.35;;;-4.50;99.90;;;;;;5035910;28;20414;-63
2024/01/11 06:20:09;;;;;;;26.33;22.17;;;-4.50;99.90;;;;;;5025457;28;20458;-64
2024/01/11 06:22:36;;;;;;;28.02;23.23;;;-4.50;99.90;;;;;;5022892;28;20918;-63
2024/01/11 06:25:05;;;;;;;26.30;22.40;;;-4.50;99.90;;;;;;5023785;28;20445;-63
2024/01/11 06:27:32;;;;;;;26.93;23.00;;;-4.50;99.90;;;;;;5024840;28;20601;-63
2024/01/11 06:29:58;;;;;;;27.23;22.63;;;-4.50;99.90;;;;;;5020559;28;20457;-63
2024/01/11 06:32:25;;;;;;;25.58;21.92;;;-4.50;99.90;;;;;;5024749;28;20414;-63
2024/01/11 06:34:52;;;;;;;26.27;23.48;;;-4.50;99.90;;;;;;5022289;28;20457;-62
2024/01/11 06:37:19;;;;;;;28.08;23.45;;;-4.50;99.90;;;;;;5025730;28;20882;-65
2024/01/11 06:39:45;;;;;;;27.25;23.10;;;-4.50;99.90;;;;;;5021338;28;20450;-62
2024/01/11 06:42:14;;;;;;;27.77;23.50;;;-4.50;99.90;;;;;;5023792;28;20416;-62
2024/01/11 06:44:41;;;;;;;30.73;23.98;;;-4.50;99.90;;;;;;5024282;28;20471;-62
2024/01/11 06:47:07;;;;;;;27.80;23.20;;;-4.60;99.90;;;;;;5024747;28;20458;-63
2024/01/11 06:49:35;;;;;;;30.70;23.33;;;-4.60;99.90;;;;;;5021301;28;20442;-62
2024/01/11 06:52:02;;;;;;;28.42;22.75;;;-4.70;99.90;;;;;;5038368;28;20431;-61
2024/01/11 06:54:30;;;;;;;31.08;24.25;;;-4.70;99.90;;;;;;5045437;28;20404;-62
2024/01/11 06:56:56;;;;;;;27.13;23.30;;;-4.80;99.90;;;;;;5048201;28;20497;-61
2024/01/11 06:59:24;;;;;;;30.03;23.33;;;-4.80;99.90;;;;;;5033535;28;20434;-62
2024/01/11 07:01:51;;;;;;;30.27;23.13;;;-4.80;99.90;;;;;;5029814;28;20939;-62
2024/01/11 07:04:18;;;;;;;28.38;23.38;;;-4.80;99.90;;;;;;5027839;28;20449;-62
2024/01/11 07:06:45;;;;;;;28.40;22.70;;;-4.90;99.90;;;;;;5026730;28;20439;-62
2024/01/11 07:09:12;;;;;;;26.75;22.65;;;-4.90;99.90;;;;;;5027294;28;20418;-62
2024/01/11 07:11:38;;;;;;;25.85;23.13;;;-4.90;99.90;;;;;;5027644;28;20518;-62
2024/01/11 07:14:05;;;;;;;28.20;22.40;;;-4.90;99.90;;;;;;5028415;28;20830;-62
2024/01/11 07:16:33;;;;;;;27.38;22.83;;;-4.90;99.90;;;;;;5028456;28;20502;-62
2024/01/11 07:19:00;;;;;;;29.80;22.13;;;-5.00;99.90;;;;;;5020638;28;20435;-63
2024/01/11 07:21:31;;;;;;;26.52;22.45;;;-5.00;99.90;;;;;;5024235;28;20763;-62
2024/01/11 07:23:58;;;;;;;28.08;23.27;;;-5.00;99.90;;;;;;5025705;28;20756;-63
2024/01/11 07:26:24;;;;;;;30.90;24.10;;;-5.00;99.90;;;;;;5025787;28;20415;-63
2024/01/11 07:28:51;;;;;;;29.20;23.10;;;-5.10;99.90;;;;;;5028737;28;20482;-63
2024/01/11 07:31:18;;;;;;;28.98;23.40;;;-5.10;99.90;;;;;;5024425;28;20415;-62
2024/01/11 07:33:46;;;;;;;30.05;23.58;;;-5.10;99.90;;;;;;5026098;28;20445;-62
2024/01/11 07:36:13;;;;;;;29.98;23.83;;;-5.10;99.90;;;;;;5026775;28;20726;-63
2024/01/11 07:38:40;;;;;;;26.48;23.35;;;-5.10;99.90;;;;;;5025574;28;20510;-62
2024/01/11 07:41:07;;;;;;;27.70;22.90;;;-5.20;99.90;;;;;;5027026;28;20522;-62
2024/01/11 07:43:35;;;;;;;30.33;24.20;;;-5.20;99.90;;;;;;5022619;28;20446;-63
2024/01/11 07:46:03;;;;;;;28.40;23.75;;;-5.20;99.90;;;;;;5026128;28;20749;-62
2024/01/11 07:48:30;;;;;;;30.80;24.52;;;-5.20;99.90;;;;;;5025188;28;20876;-62
2024/01/11 07:50:59;;;;;;;29.30;25.33;;;-5.20;99.90;;;;;;5026174;28;20438;-63
2024/01/11 07:53:25;;;;;;;28.83;23.95;;;-5.20;99.90;;;;;;5026899;28;20435;-62
2024/01/11 07:55:52;;;;;;;29.20;23.92;;;-5.10;99.90;;;;;;5025188;28;20419;-62
2024/01/11 07:58:20;;;;;;;30.75;23.90;;;-5.10;99.90;;;;;;5026496;28;20424;-63
2024/01/11 08:00:48;;;;;;;29.40;24.10;;;-5.00;99.90;;;;;;5025662;28;20546;-66
2024/01/11 08:03:14;;;;;;;33.20;25.33;;;-5.00;99.90;;;;;;5024263;28;20890;-62
2024/01/11 08:05:43;;;;;;;31.40;24.35;;;-4.90;99.90;;;;;;5040298;28;20443;-62
2024/01/11 08:08:11;;;;;;;29.77;25.75;;;-4.80;99.90;;;;;;5032311;28;20510;-62
2024/01/11 08:10:37;;;;;;;31.50;25.30;;;-4.80;99.90;;;;;;5022325;28;20456;-63
2024/01/11 08:13:04;;;;;;;30.05;24.50;;;-4.70;99.90;;;;;;5024674;28;20419;-63
2024/01/11 08:15:31;;;;;;;31.27;24.17;;;-4.70;99.90;;;;;;5026628;28;20414;-62
2024/01/11 08:17:58;;;;;;;29.58;24.08;;;-4.60;99.90;;;;;;5024291;28;20506;-63
2024/01/11 08:20:25;;;;;;;30.70;24.90;;;-4.60;99.90;;;;;;5024576;28;20426;-62
2024/01/11 08:22:52;;;;;;;27.52;23.77;;;-4.50;99.90;;;;;;5024340;28;20546;-58
2024/01/11 08:25:20;;;;;;;29.75;24.45;;;-4.40;99.90;;;;;;5023806;28;20423;-62
2024/01/11 08:27:46;;;;;;;30.77;24.80;;;-4.30;99.90;;;;;;5024922;28;20533;-64
2024/01/11 08:30:13;;;;;;;31.88;25.13;;;-4.20;99.90;;;;;;5026323;28;20422;-62
2024/01/11 08:32:41;;;;;;;31.73;24.92;;;-4.00;99.90;;;;;;5021908;28;20483;-62
2024/01/11 08:35:11;;;;;;;27.40;23.23;;;-3.80;99.90;;;;;;5024538;28;20468;-63
2024/01/11 08:37:38;;;;;;;28.73;25.20;;;-3.70;99.90;;;;;;5024424;28;20490;-63
2024/01/11 08:40:06;;;;;;;26.95;23.35;;;-3.50;99.90;;;;;;5027263;28;20776;-65
2024/01/11 08:42:34;;;;;;;27.95;23.25;;;-3.40;99.90;;;;;;5025273;28;20912;-63
2024/01/11 08:45:06;;;;;;;27.67;23.03;;;-3.20;99.90;;;;;;5019888;28;20449;-62
2024/01/11 08:47:33;;;;;;;31.30;24.67;;;-3.20;99.90;;;;;;5027050;28;20442;-63
2024/01/11 08:50:00;;;;;;;29.75;24.70;;;-3.20;99.90;;;;;;5026178;28;20467;-63
2024/01/11 08:52:26;;;;;;;31.53;23.90;;;-3.10;99.90;;;;;;5027765;28;20406;-62
2024/01/11 08:54:53;;;;;;;27.85;23.50;;;-2.90;99.90;;;;;;5024809;28;20941;-62
2024/01/11 08:57:20;;;;;;;28.30;25.20;;;-2.80;99.90;;;;;;5025827;28;20470;-63
2024/01/11 08:59:48;;;;;;;29.98;24.00;;;-2.70;99.90;;;;;;5025135;28;20438;-63
2024/01/11 09:02:15;;;;;;;27.27;23.10;;;-2.60;99.90;;;;;;5021999;28;20503;-63
2024/01/11 09:04:41;;;;;;;27.95;24.15;;;-2.50;99.90;;;;;;5026056;28;20520;-63
2024/01/11 09:07:08;;;;;;;28.67;24.70;;;-2.30;99.90;;;;;;5024804;28;20419;-63
2024/01/11 09:09:35;;;;;;;31.13;25.67;;;-2.20;99.90;;;;;;5025565;28;20423;-62
2024/01/11 09:12:02;;;;;;;30.00;24.70;;;-2.20;99.90;;;;;;5023291;28;20431;-64
2024/01/11 09:14:29;;;;;;;30.67;24.40;;;-2.00;99.90;;;;;;5025034;28;20413;-64
2024/01/11 09:16:57;;;;;;;28.92;24.92;;;-1.90;99.90;;;;;;5024269;28;20438;-64
2024/01/11 09:19:25;;;;;;;28.27;25.10;;;-1.80;99.90;;;;;;5018092;28;20925;-64
2024/01/11 09:21:51;;;;;;;27.80;24.10;;;-1.60;99.90;;;;;;5018343;28;20433;-61
2024/01/11 09:24:18;;;;;;;28.52;23.40;;;-1.50;99.90;;;;;;5018516;28;20415;-64
2024/01/11 09:26:45;;;;;;;27.95;23.63;;;-1.30;99.90;;;;;;5021717;28;20422;-65
2024/01/11 09:29:12;;;;;;;28.63;24.55;;;-1.20;99.90;;;;;;5019283;28;20913;-64
2024/01/11 09:31:38;;;;;;;27.13;24.23;;;-1.10;99.90;;;;;;5018769;28;20526;-61
2024/01/11 09:34:07;;;;;;;28.17;24.75;;;-1.00;99.90;;;;;;5018114;28;20415;-65
2024/01/11 09:36:34;;;;;;;30.75;24.90;;;-1.00;99.90;;;;;;5021628;28;20950;-62
2024/01/11 09:39:01;;;;;;;28.67;25.40;;;-1.00;99.90;;;;;;5022251;28;20431;-63
2024/01/11 09:41:30;;;;;;;29.55;25.05;;;-0.90;99.90;;;;;;5023927;28;20794;-62
2024/01/11 09:44:01;;;;;;;26.98;23.88;;;-0.80;99.90;;;;;;5017149;28;20932;-62
2024/01/11 09:46:29;;;;;;;29.23;25.02;;;-0.60;99.90;;;;;;5042232;23;20899;-67
2024/01/11 09:48:57;;;;;;;29.88;24.52;;;-0.40;99.90;;;;;;5025184;28;20435;-67
2024/01/11 09:51:27;;;;;;;27.45;24.38;;;-0.20;99.90;;;;;;5032521;28;20405;-68
2024/01/11 09:53:56;;;;;;;30.07;26.50;;;-0.10;99.90;;;;;;5029545;28;20437;-68
2024/01/11 09:56:24;;;;;;;27.88;24.88;;;0.10;99.90;;;;;;5025753;28;20488;-68
2024/01/11 09:58:51;;;;;;;29.73;24.95;;;0.20;99.90;;;;;;5022636;28;20464;-68
2024/01/11 10:01:18;;;;;;;28.23;25.23;;;0.20;99.90;;;;;;5020416;28;20431;-68
2024/01/11 10:03:46;;;;;;;29.90;26.33;;;0.30;99.90;;;;;;5029992;28;20438;-67
2024/01/11 10:06:15;;;;;;;31.42;27.20;;;0.40;99.90;;;;;;5031855;28;20431;-67
2024/01/11 10:08:44;;;;;;;29.40;25.90;;;0.40;99.90;;;;;;5031734;28;20427;-68
2024/01/11 10:11:10;;;;;;;30.40;26.88;;;0.50;99.40;;;;;;5028788;28;20406;-67
2024/01/11 10:13:38;;;;;;;29.02;25.92;;;0.50;98.70;;;;;;5034063;28;20676;-68
2024/01/11 10:16:09;;;;;;;31.13;25.90;;;0.50;98.50;;;;;;5030311;28;20436;-68
2024/01/11 10:18:36;;;;;;;29.70;26.50;;;0.50;98.30;;;;;;5035036;28;20422;-68
2024/01/11 10:21:03;;;;;;;31.07;27.63;;;0.60;98.90;;;;;;5030335;28;20433;-68
2024/01/11 10:23:30;;;;;;;30.10;26.90;;;0.70;98.70;;;;;;5032712;28;20464;-68
2024/01/11 10:25:59;;;;;;;29.20;26.20;;;0.90;98.60;;;;;;5026301;28;20505;-68
2024/01/11 10:28:27;;;;;;;28.83;25.73;;;1.00;98.60;;;;;;5040410;28;20907;-68
2024/01/11 10:30:54;;;;;;;29.98;26.77;;;1.20;97.90;;;;;;5031646;28;20443;-68
2024/01/11 10:33:20;;;;;;;29.83;26.57;;;1.30;97.30;;;;;;5035933;28;20447;-68
2024/01/11 10:35:48;;;;;;;32.13;26.90;;;1.50;96.90;;;;;;5038053;28;20431;-69
2024/01/11 10:38:15;;;;;;;29.85;25.70;;;1.60;96.10;;;;;;5031122;28;20866;-68
2024/01/11 10:40:43;;;;;;;29.38;26.27;;;1.70;95.30;;;;;;5032668;28;20514;-68
2024/01/11 10:43:11;;;;;;;29.73;26.00;;;1.80;94.90;;;;;;5036974;28;20432;-68
2024/01/11 10:45:39;;;;;;;29.92;26.73;;;1.90;94.10;;;;;;5036819;28;20533;-63
2024/01/11 10:48:08;;;;;;;29.55;25.88;;;1.90;93.80;;;;;;5037416;28;20428;-66
2024/01/11 10:50:37;;;;;;;28.45;25.45;;;2.00;93.80;;;;;;5035807;28;20938;-67
2024/01/11 10:53:10;;;;;;;30.55;27.00;;;2.00;93.50;;;;;;5039172;28;20419;-68
2024/01/11 10:55:38;;;;;;;30.13;26.85;;;2.00;93.50;;;;;;5033374;28;20805;-67
2024/01/11 10:58:05;;;;;;;31.33;27.73;;;2.00;93.20;;;;;;5028437;28;20447;-67
2024/01/11 11:00:36;;;;;;;29.70;26.60;;;2.00;93.20;;;;;;5036367;28;20430;-69
2024/01/11 11:03:06;;;;;;;31.70;26.70;;;1.90;93.80;;;;;;5031549;28;20427;-69
2024/01/11 11:05:35;;;;;;;31.30;26.60;;;2.00;93.60;;;;;;5040833;28;20496;-72
2024/01/11 11:08:02;;;;;;;34.03;27.73;;;1.90;92.80;;;;;;5036277;28;20921;-73
2024/01/11 11:10:30;;;;;;;30.80;27.50;;;1.80;94.10;;;;;;5040480;28;20943;-73
2024/01/11 11:12:59;;;;;;;30.30;27.00;;;1.90;94.20;;;;;;5032508;28;20549;-73
2024/01/11 11:15:28;;;;;;;30.40;27.02;;;1.80;94.70;;;;;;5031544;28;20448;-73
2024/01/11 11:17:57;;;;;;;30.30;27.05;;;1.90;95.40;;;;;;5033250;28;20895;-73
2024/01/11 11:20:24;;;;;;;31.98;27.85;;;2.00;94.20;;;;;;5046433;28;20417;-73
2024/01/11 11:23:04;;;;;;;30.20;27.10;;;2.00;95.00;;;;;;5032987;28;20434;-74
2024/01/11 11:25:32;;;;;;;31.48;27.98;;;2.10;93.30;;;;;;5045621;28;20440;-73
2024/01/11 11:27:59;;;;;;;31.45;27.05;;;2.10;92.00;;;;;;5031406;28;20457;-73
2024/01/11 11:30:25;;;;;;;29.93;25.90;;;2.10;92.00;;;;;;5033967;28;20527;-73
2024/01/11 11:32:52;;;;;;;30.10;26.90;;;2.10;91.50;;;;;;5034420;28;20677;-73
2024/01/11 11:35:23;;;;;;;30.25;27.05;;;2.20;91.20;;;;;;5035860;28;20505;-73
2024/01/11 11:37:53;;;;;;;31.42;27.15;;;2.30;90.40;;;;;;5039730;28;20803;-66
2024/01/11 11:40:21;;;;;;;30.70;27.50;;;2.30;90.10;;;;;;5034254;28;20748;-68
2024/01/11 11:42:48;;;;;;;30.65;27.35;;;2.40;92.40;;;;;;5036529;28;20437;-69
2024/01/11 11:45:26;;;;;;;28.92;25.42;;;2.40;88.00;;;;;;5033449;28;20439;-69
2024/01/11 11:47:52;;;;;;;31.98;27.10;;;2.40;85.10;;;;;;5025489;28;20405;-69
2024/01/11 11:50:23;;;;;;;29.90;26.70;;;2.30;85.50;;;;;;5034075;28;20448;-69
2024/01/11 11:52:55;;;;;;;30.63;26.98;;;2.40;84.00;;;;;;5029686;28;20419;-68
2024/01/11 11:55:24;;;;;;;30.75;26.55;;;2.60;83.20;;;;;;5039315;28;20419;-69
2024/01/11 11:57:51;;;;;;;29.92;26.80;;;2.80;81.40;;;;;;5042335;28;20417;-68
2024/01/11 12:00:18;;;;;;;30.52;27.38;;;3.10;77.20;;;;;;5033005;28;20427;-69
2024/01/11 12:02:47;;;;;;;28.40;25.40;;;3.30;75.60;;;;;;5030498;28;20431;-69
2024/01/11 12:05:14;;;;;;;28.02;25.02;;;3.50;74.80;;;;;;5037195;28;20477;-68
2024/01/11 12:07:42;;;;;;;28.52;25.52;;;3.90;72.90;;;;;;5043005;28;20405;-69
2024/01/11 12:10:09;;;;;;;30.00;26.20;;;4.30;71.50;;;;;;5033103;28;21043;-69
2024/01/11 12:12:39;;;;;;;29.15;26.05;;;4.70;69.70;;;;;;5041531;28;20411;-69
2024/01/11 12:15:07;;;;;;;29.20;25.98;;;5.20;67.60;;;;;;5037548;28;20404;-69
2024/01/11 12:17:34;;;;;;;27.55;24.30;;;5.80;65.80;;;;;;5036879;28;20531;-68
2024/01/11 12:20:01;;;;;;;27.75;24.85;;;6.70;62.00;;;;;;5029627;28;21903;-69
2024/01/11 12:22:27;;;;;;;27.63;24.83;;;7.30;58.90;;;;;;5034096;28;20434;-70
2024/01/11 12:24:57;;;;;;;28.93;24.70;;;7.50;57.30;;;;;;5030723;28;20436;-69
2024/01/11 12:27:24;;;;;;;27.52;24.70;;;7.60;55.00;;;;;;5033582;28;20469;-68
2024/01/11 12:29:51;;;;;;;25.80;23.10;;;7.30;54.30;;;;;;5040335;28;20817;-68